Time;durP1;ratioP1;P1;durP2;ratioP2;P2;SDS_P1;SDS_P2;PMS_P1;PMS_P2;Temp;Humidity;BMP_temperature;BMP_pressure;BME280_temperature;BME280_humidity;BME280_pressure;Samples;Min_cycle;Max_cycle;Signal;HPM_P1;HPM_P2
2022/09/29 00:00:15;;;;;;;16.60;9.40;;;10.30;99.90;;;;;;5023618;28;20214;-70
2022/09/29 00:02:41;;;;;;;12.77;8.90;;;10.40;99.90;;;;;;5029264;28;20234;-69
2022/09/29 00:05:08;;;;;;;13.27;8.47;;;10.40;99.90;;;;;;5016691;28;20203;-70
2022/09/29 00:07:35;;;;;;;10.03;6.90;;;10.30;99.90;;;;;;5022759;28;20222;-70
2022/09/29 00:10:04;;;;;;;9.60;6.90;;;10.30;99.90;;;;;;5022954;28;20651;-70
2022/09/29 00:12:31;;;;;;;9.87;7.23;;;10.30;99.90;;;;;;5013931;28;20340;-70
2022/09/29 00:14:58;;;;;;;10.30;7.40;;;10.30;99.90;;;;;;5026627;28;23312;-70
2022/09/29 00:17:25;;;;;;;7.30;6.00;;;10.30;99.90;;;;;;5024466;28;20208;-70
2022/09/29 00:19:52;;;;;;;7.83;6.23;;;10.20;99.90;;;;;;5011346;28;20225;-70
2022/09/29 00:22:18;;;;;;;9.73;6.90;;;10.20;99.90;;;;;;5011098;28;20226;-69
2022/09/29 00:24:47;;;;;;;9.10;6.70;;;10.10;99.90;;;;;;5031070;28;20231;-70
2022/09/29 00:27:16;;;;;;;8.60;6.47;;;10.10;99.90;;;;;;5017674;28;20208;-70
2022/09/29 00:29:43;;;;;;;8.87;6.23;;;10.00;99.90;;;;;;5017161;28;20218;-70
2022/09/29 00:32:10;;;;;;;7.93;5.50;;;10.00;99.90;;;;;;5031574;28;20207;-69
2022/09/29 00:34:37;;;;;;;8.20;5.93;;;10.00;99.90;;;;;;5021501;28;20671;-68
2022/09/29 00:37:04;;;;;;;8.37;6.00;;;10.00;99.90;;;;;;5025275;28;20229;-69
2022/09/29 00:39:31;;;;;;;9.07;5.60;;;10.00;99.90;;;;;;5018937;28;20246;-69
2022/09/29 00:41:58;;;;;;;8.60;6.83;;;10.00;99.90;;;;;;5028821;28;20202;-69
2022/09/29 00:45:00;;;;;;;8.97;6.50;;;10.00;99.90;;;;;;5031997;28;20221;-68
2022/09/29 00:47:28;;;;;;;7.17;6.00;;;9.90;99.90;;;;;;5017408;28;20234;-70
2022/09/29 00:49:59;;;;;;;8.00;6.30;;;9.90;99.90;;;;;;5033223;28;20203;-70
2022/09/29 00:52:30;;;;;;;6.60;5.87;;;9.90;99.90;;;;;;5017975;28;20209;-70
2022/09/29 00:55:02;;;;;;;8.70;5.60;;;9.90;99.90;;;;;;5032187;28;20209;-69
2022/09/29 00:57:34;;;;;;;8.77;6.07;;;9.90;99.90;;;;;;5028618;28;20202;-69
2022/09/29 01:00:08;;;;;;;8.03;6.00;;;9.90;99.90;;;;;;5015558;28;20235;-69
2022/09/29 01:02:44;;;;;;;6.53;5.63;;;9.80;99.90;;;;;;5025214;28;20196;-69
2022/09/29 01:05:15;;;;;;;7.87;6.53;;;9.80;99.90;;;;;;5011903;28;20211;-69
2022/09/29 01:07:44;;;;;;;6.97;5.80;;;9.80;99.90;;;;;;5036758;28;20210;-70
2022/09/29 01:10:13;;;;;;;8.20;6.00;;;9.80;99.90;;;;;;5017823;28;20226;-71
2022/09/29 01:12:41;;;;;;;7.73;6.20;;;9.90;99.90;;;;;;5014619;28;20234;-69
2022/09/29 01:15:09;;;;;;;7.07;5.93;;;9.80;99.90;;;;;;5021027;28;20203;-69
2022/09/29 01:17:36;;;;;;;8.80;6.03;;;9.90;99.90;;;;;;5025619;28;20214;-69
2022/09/29 01:20:12;;;;;;;7.37;6.53;;;9.90;99.90;;;;;;5021595;28;20223;-70
2022/09/29 01:23:11;;;;;;;6.90;5.90;;;9.90;99.90;;;;;;5012271;28;20257;-69
2022/09/29 01:26:22;;;;;;;7.20;5.90;;;9.80;99.90;;;;;;5017321;28;20302;-67
2022/09/29 01:29:08;;;;;;;6.77;5.73;;;9.80;99.90;;;;;;5020323;28;20667;-69
2022/09/29 01:31:45;;;;;;;7.23;6.00;;;9.80;99.90;;;;;;5012795;28;20214;-69
2022/09/29 01:34:20;;;;;;;8.10;6.00;;;9.70;99.90;;;;;;5012668;28;20202;-70
2022/09/29 01:36:56;;;;;;;7.47;6.33;;;9.80;99.90;;;;;;5011170;28;20668;-70
2022/09/29 01:39:29;;;;;;;7.77;6.40;;;9.70;99.90;;;;;;5010990;28;20278;-69
2022/09/29 01:42:00;;;;;;;7.20;6.17;;;9.70;99.90;;;;;;5022126;28;20202;-70
2022/09/29 01:44:33;;;;;;;7.00;5.93;;;9.70;99.90;;;;;;5020050;28;20222;-68
2022/09/29 01:47:07;;;;;;;7.73;6.20;;;9.60;99.90;;;;;;5022383;28;20214;-70
2022/09/29 01:49:39;;;;;;;8.23;6.57;;;9.60;99.90;;;;;;5023711;28;20202;-69
2022/09/29 01:52:10;;;;;;;7.83;6.57;;;9.60;99.90;;;;;;5030450;28;20207;-70
2022/09/29 01:54:44;;;;;;;7.77;6.33;;;9.50;99.90;;;;;;5014462;28;20218;-69
2022/09/29 01:57:16;;;;;;;6.80;6.13;;;9.60;99.90;;;;;;5021108;28;20296;-70
2022/09/29 01:59:47;;;;;;;7.87;6.17;;;9.60;99.90;;;;;;5015939;28;20211;-70
2022/09/29 02:02:21;;;;;;;7.23;5.70;;;9.50;99.90;;;;;;5022223;28;20206;-70
2022/09/29 02:04:53;;;;;;;7.93;6.60;;;9.60;99.90;;;;;;5018420;28;20257;-70
2022/09/29 02:07:24;;;;;;;7.87;6.27;;;9.60;99.90;;;;;;5028258;28;20281;-70
2022/09/29 02:09:59;;;;;;;7.47;5.93;;;9.60;99.90;;;;;;5026072;28;20199;-69
2022/09/29 02:12:29;;;;;;;8.33;6.80;;;9.60;99.90;;;;;;5020156;28;20202;-70
2022/09/29 02:14:58;;;;;;;7.97;6.60;;;9.60;99.90;;;;;;5033182;28;20211;-70
2022/09/29 02:17:31;;;;;;;8.20;7.10;;;9.60;99.90;;;;;;5013172;28;20211;-70
2022/09/29 02:19:58;;;;;;;8.67;6.30;;;9.60;99.90;;;;;;5011938;28;20203;-70
2022/09/29 02:22:25;;;;;;;6.97;6.10;;;9.50;99.90;;;;;;5011993;28;20249;-70
2022/09/29 02:24:54;;;;;;;10.67;6.47;;;9.50;99.90;;;;;;5031430;28;20214;-70
2022/09/29 02:27:22;;;;;;;6.93;5.63;;;9.50;99.90;;;;;;5035311;28;20233;-69
2022/09/29 02:29:49;;;;;;;8.67;6.60;;;9.50;99.90;;;;;;5021698;28;20214;-69
2022/09/29 02:32:16;;;;;;;9.37;6.77;;;9.50;99.90;;;;;;5013036;28;20214;-70
2022/09/29 02:34:48;;;;;;;9.23;6.47;;;9.50;99.90;;;;;;5023392;28;20206;-69
2022/09/29 02:37:42;;;;;;;8.63;6.43;;;9.50;99.90;;;;;;5011034;28;20200;-70
2022/09/29 02:40:29;;;;;;;9.07;6.50;;;9.50;99.90;;;;;;5016934;28;20249;-70
2022/09/29 02:43:09;;;;;;;9.47;6.73;;;9.50;99.90;;;;;;5027265;28;20207;-69
2022/09/29 02:45:46;;;;;;;8.57;6.57;;;9.50;99.90;;;;;;5018739;28;20203;-69
2022/09/29 02:48:30;;;;;;;10.93;6.00;;;9.40;99.90;;;;;;5022090;28;20213;-69
2022/09/29 02:51:12;;;;;;;9.07;6.67;;;9.40;99.90;;;;;;5012599;28;20210;-69
2022/09/29 02:53:54;;;;;;;9.63;6.20;;;9.40;99.90;;;;;;5017703;28;20206;-69
2022/09/29 02:56:28;;;;;;;7.90;6.40;;;9.40;99.90;;;;;;5016210;28;20643;-70
2022/09/29 02:59:01;;;;;;;7.83;6.77;;;9.40;99.90;;;;;;5014773;28;20650;-69
2022/09/29 03:01:31;;;;;;;7.87;7.07;;;9.40;99.90;;;;;;5020177;28;20516;-69
2022/09/29 03:03:58;;;;;;;9.17;7.13;;;9.40;99.90;;;;;;5027046;28;20308;-69
2022/09/29 03:06:26;;;;;;;7.33;6.50;;;9.40;99.90;;;;;;5027057;28;20213;-70
2022/09/29 03:08:53;;;;;;;9.33;7.23;;;9.40;99.90;;;;;;5012730;28;20645;-69
2022/09/29 03:11:20;;;;;;;9.87;6.93;;;9.40;99.90;;;;;;5011300;28;20207;-69
2022/09/29 03:13:46;;;;;;;9.17;7.10;;;9.40;99.90;;;;;;5018921;28;20670;-69
2022/09/29 03:16:13;;;;;;;8.13;7.00;;;9.30;99.90;;;;;;5019847;28;20210;-69
2022/09/29 03:18:40;;;;;;;8.43;7.43;;;9.30;99.90;;;;;;5009467;28;20211;-69
2022/09/29 03:21:06;;;;;;;8.63;7.33;;;9.30;99.90;;;;;;5014623;28;20218;-69
2022/09/29 03:23:34;;;;;;;9.03;7.40;;;9.30;99.90;;;;;;5030863;28;20242;-69
2022/09/29 03:26:01;;;;;;;7.67;6.97;;;9.30;99.90;;;;;;5018836;28;20218;-70
2022/09/29 03:28:28;;;;;;;8.67;7.83;;;9.30;99.90;;;;;;5020457;28;20229;-70
2022/09/29 03:30:55;;;;;;;8.53;7.50;;;9.30;99.90;;;;;;5011367;28;20203;-70
2022/09/29 03:33:22;;;;;;;8.83;7.93;;;9.20;99.90;;;;;;5017646;28;20203;-69
2022/09/29 03:35:48;;;;;;;8.47;7.57;;;9.20;99.90;;;;;;5021366;28;20214;-69
2022/09/29 03:38:15;;;;;;;9.27;8.00;;;9.20;99.90;;;;;;5021252;28;20211;-71
2022/09/29 03:40:43;;;;;;;7.90;7.07;;;9.10;99.90;;;;;;5010295;28;20286;-70
2022/09/29 03:43:10;;;;;;;8.83;7.43;;;9.10;99.90;;;;;;5012456;28;20207;-69
2022/09/29 03:45:37;;;;;;;8.67;7.63;;;9.10;99.90;;;;;;5010058;28;20231;-70
2022/09/29 03:48:03;;;;;;;8.80;7.13;;;9.00;99.90;;;;;;5010783;28;20206;-70
2022/09/29 03:50:31;;;;;;;8.63;7.83;;;9.00;99.90;;;;;;5021178;28;20222;-70
2022/09/29 03:52:57;;;;;;;9.63;8.63;;;9.00;99.90;;;;;;5015704;28;20219;-70
2022/09/29 03:55:24;;;;;;;9.23;7.33;;;9.00;99.90;;;;;;5020072;28;20199;-70
2022/09/29 03:57:52;;;;;;;8.13;7.33;;;9.10;99.90;;;;;;5017508;28;20576;-70
2022/09/29 04:00:19;;;;;;;9.13;8.10;;;9.00;99.90;;;;;;5023428;28;20262;-69
2022/09/29 04:02:46;;;;;;;9.83;8.10;;;9.00;99.90;;;;;;5015796;28;20218;-69
2022/09/29 04:05:12;;;;;;;8.10;7.30;;;9.00;99.90;;;;;;5031578;28;20671;-70
2022/09/29 04:07:39;;;;;;;11.53;8.93;;;9.10;99.90;;;;;;5041914;28;20242;-70
2022/09/29 04:10:06;;;;;;;8.53;7.63;;;9.00;99.90;;;;;;5016361;28;20212;-70
2022/09/29 04:12:33;;;;;;;8.63;7.73;;;9.00;99.90;;;;;;5028721;28;20213;-70
2022/09/29 04:15:01;;;;;;;10.97;8.10;;;9.00;99.90;;;;;;5023879;28;20289;-70
2022/09/29 04:17:28;;;;;;;8.37;7.50;;;8.90;99.90;;;;;;5014550;28;20687;-70
2022/09/29 04:19:55;;;;;;;8.50;7.53;;;8.90;99.90;;;;;;5021230;28;20199;-70
2022/09/29 04:22:21;;;;;;;8.27;7.47;;;9.00;99.90;;;;;;5036323;28;20234;-70
2022/09/29 04:24:49;;;;;;;9.20;8.30;;;9.00;99.90;;;;;;5025287;28;20225;-70
2022/09/29 04:27:16;;;;;;;9.17;8.03;;;9.00;99.90;;;;;;5020161;28;20301;-71
2022/09/29 04:29:42;;;;;;;8.50;7.27;;;9.00;99.90;;;;;;5021484;28;20543;-70
2022/09/29 04:32:11;;;;;;;10.27;8.80;;;9.00;99.90;;;;;;5036838;28;20638;-70
2022/09/29 04:34:37;;;;;;;9.47;7.87;;;9.10;99.90;;;;;;5021640;28;20199;-70
2022/09/29 04:37:04;;;;;;;9.50;8.17;;;9.00;99.90;;;;;;5015166;28;20218;-69
2022/09/29 04:39:31;;;;;;;9.90;8.73;;;9.00;99.90;;;;;;5032442;28;20206;-69
2022/09/29 04:41:58;;;;;;;12.43;8.20;;;9.10;99.90;;;;;;5028102;28;20249;-70
2022/09/29 04:44:24;;;;;;;10.20;9.17;;;9.20;99.90;;;;;;5019952;28;20701;-70
2022/09/29 04:46:52;;;;;;;9.87;7.97;;;9.20;99.90;;;;;;5032312;28;20211;-71
2022/09/29 04:49:20;;;;;;;9.30;7.87;;;9.20;99.90;;;;;;5019929;28;20306;-70
2022/09/29 04:51:47;;;;;;;11.47;8.83;;;9.20;99.90;;;;;;5022398;28;20419;-70
2022/09/29 04:54:14;;;;;;;11.90;8.30;;;9.20;99.90;;;;;;5028994;28;20198;-70
2022/09/29 04:56:41;;;;;;;9.70;8.40;;;9.30;99.90;;;;;;5037202;28;20203;-70
2022/09/29 04:59:09;;;;;;;9.60;8.60;;;9.20;99.90;;;;;;5016333;28;20219;-70
2022/09/29 05:01:36;;;;;;;10.60;7.97;;;9.30;99.90;;;;;;5015203;28;20203;-69
2022/09/29 05:04:03;;;;;;;10.30;8.23;;;9.30;99.90;;;;;;5019654;28;20246;-69
2022/09/29 05:06:31;;;;;;;13.47;7.97;;;9.30;99.90;;;;;;5025980;28;20552;-70
2022/09/29 05:08:58;;;;;;;11.00;9.37;;;9.30;99.90;;;;;;5021984;28;20314;-71
2022/09/29 05:11:25;;;;;;;9.53;8.27;;;9.30;99.90;;;;;;5014064;28;20207;-70
2022/09/29 05:13:51;;;;;;;9.60;8.43;;;9.30;99.90;;;;;;5030920;28;20214;-70
2022/09/29 05:16:18;;;;;;;10.27;8.13;;;9.40;99.90;;;;;;5024882;28;20679;-70
2022/09/29 05:18:45;;;;;;;12.30;8.83;;;9.40;99.90;;;;;;5022580;28;20758;-70
2022/09/29 05:21:12;;;;;;;10.60;8.47;;;9.40;99.90;;;;;;5012609;28;20207;-70
2022/09/29 05:23:41;;;;;;;10.27;8.90;;;9.50;99.90;;;;;;5021186;28;20250;-71
2022/09/29 05:26:08;;;;;;;10.27;8.70;;;9.50;99.90;;;;;;5022778;28;20238;-70
2022/09/29 05:28:36;;;;;;;12.30;8.70;;;9.50;99.90;;;;;;5022488;28;20663;-70
2022/09/29 05:31:03;;;;;;;10.70;9.20;;;9.40;99.90;;;;;;5029216;28;20206;-71
2022/09/29 05:33:30;;;;;;;11.50;9.00;;;9.60;99.90;;;;;;5036348;28;20214;-71
2022/09/29 05:35:57;;;;;;;11.87;8.63;;;9.60;99.90;;;;;;5019903;28;20212;-71
2022/09/29 05:38:24;;;;;;;11.57;9.20;;;9.60;99.90;;;;;;5017396;28;20602;-68
2022/09/29 05:40:53;;;;;;;13.57;10.07;;;9.60;99.90;;;;;;5015544;28;20656;-70
2022/09/29 05:43:20;;;;;;;11.93;8.83;;;9.50;99.90;;;;;;5022702;28;20289;-71
2022/09/29 05:45:47;;;;;;;12.80;9.13;;;9.60;99.90;;;;;;5027175;28;20223;-69
2022/09/29 05:48:14;;;;;;;12.90;9.17;;;9.60;99.90;;;;;;5032396;28;20615;-70
2022/09/29 05:50:42;;;;;;;12.00;9.63;;;9.60;99.90;;;;;;5023503;28;20579;-69
2022/09/29 05:53:09;;;;;;;11.93;9.40;;;9.60;99.90;;;;;;5029138;28;20674;-69
2022/09/29 05:55:36;;;;;;;13.53;9.73;;;9.60;99.90;;;;;;5015029;28;20199;-70
2022/09/29 05:58:05;;;;;;;10.37;9.13;;;9.60;99.90;;;;;;5026221;28;20226;-68
2022/09/29 06:00:32;;;;;;;13.83;9.33;;;9.60;99.90;;;;;;5039408;28;20518;-68
2022/09/29 06:03:00;;;;;;;10.47;9.10;;;9.60;99.90;;;;;;5030872;28;20211;-68
2022/09/29 06:05:27;;;;;;;12.43;9.00;;;9.60;99.90;;;;;;5029854;28;20218;-68
2022/09/29 06:07:54;;;;;;;11.60;8.73;;;9.60;99.90;;;;;;5022842;28;20202;-68
2022/09/29 06:10:21;;;;;;;10.93;9.37;;;9.60;99.90;;;;;;5030322;28;20214;-68
2022/09/29 06:12:48;;;;;;;12.63;9.53;;;9.60;99.90;;;;;;5036905;28;20217;-68
2022/09/29 06:15:16;;;;;;;11.93;9.93;;;9.60;99.90;;;;;;5031248;28;20233;-68
2022/09/29 06:17:43;;;;;;;14.57;10.47;;;9.50;99.90;;;;;;5028785;28;20731;-67
2022/09/29 06:20:11;;;;;;;10.90;8.83;;;9.60;99.90;;;;;;5021466;28;20213;-68
2022/09/29 06:22:37;;;;;;;11.57;9.57;;;9.60;99.90;;;;;;5029752;28;20227;-69
2022/09/29 06:25:05;;;;;;;11.70;9.93;;;9.50;99.90;;;;;;5023820;28;20226;-68
2022/09/29 06:27:32;;;;;;;13.47;9.53;;;9.50;99.90;;;;;;5024101;28;20218;-68
2022/09/29 06:29:59;;;;;;;13.27;9.63;;;9.50;99.90;;;;;;5016750;28;20214;-68
2022/09/29 06:32:28;;;;;;;11.07;9.40;;;9.50;99.90;;;;;;5015067;28;20656;-71
2022/09/29 06:37:45;;;;;;;10.77;9.37;;;9.50;99.90;;;;;;5030626;28;20201;-73
2022/09/29 06:40:12;;;;;;;11.07;8.90;;;9.60;99.90;;;;;;5031396;28;20198;-73
2022/09/29 06:42:39;;;;;;;14.82;12.55;;;9.60;99.90;;;;;;5025301;28;20458;-73
2022/09/29 06:45:07;;;;;;;13.30;11.90;;;9.60;99.90;;;;;;5015671;28;20453;-71
2022/09/29 06:47:35;;;;;;;11.93;10.73;;;9.60;99.90;;;;;;5022287;28;20203;-72
2022/09/29 06:50:02;;;;;;;13.00;10.37;;;9.70;99.90;;;;;;5027364;28;20207;-72
2022/09/29 06:52:29;;;;;;;11.13;9.17;;;9.70;99.90;;;;;;5025529;28;20207;-73
2022/09/29 06:54:56;;;;;;;11.67;9.70;;;9.70;99.90;;;;;;5023681;28;20208;-71
2022/09/29 06:57:23;;;;;;;10.17;9.07;;;9.70;99.90;;;;;;5027511;28;20555;-70
2022/09/29 06:59:50;;;;;;;11.90;10.70;;;9.80;99.90;;;;;;5025835;28;20456;-70
2022/09/29 07:02:17;;;;;;;11.07;8.67;;;9.80;99.90;;;;;;5025100;28;20206;-72
2022/09/29 07:04:47;;;;;;;10.67;8.33;;;9.80;99.90;;;;;;5025374;28;20687;-72
2022/09/29 07:07:14;;;;;;;10.80;9.80;;;9.80;99.90;;;;;;5027185;28;20480;-70
2022/09/29 07:09:42;;;;;;;10.00;9.00;;;9.80;99.90;;;;;;5017898;28;20210;-77
2022/09/29 07:12:10;;;;;;;10.97;9.00;;;9.80;99.90;;;;;;5025977;28;20215;-71
2022/09/29 07:14:37;;;;;;;8.77;7.67;;;9.80;99.90;;;;;;5026165;28;20693;-69
2022/09/29 07:17:04;;;;;;;8.97;8.07;;;9.90;99.90;;;;;;5032198;28;20205;-71
2022/09/29 07:19:31;;;;;;;8.57;7.67;;;9.90;99.90;;;;;;5026520;28;20230;-71
2022/09/29 07:21:59;;;;;;;11.30;8.97;;;9.90;99.90;;;;;;5030526;28;20226;-69
2022/09/29 07:24:26;;;;;;;10.87;8.57;;;9.90;99.90;;;;;;5029172;28;20238;-68
2022/09/29 07:26:53;;;;;;;8.63;7.70;;;9.90;99.90;;;;;;5023857;28;20206;-70
2022/09/29 07:29:20;;;;;;;8.57;7.53;;;9.90;99.90;;;;;;5030347;28;20691;-71
2022/09/29 07:31:47;;;;;;;9.20;7.23;;;9.90;99.90;;;;;;5027923;28;20206;-71
2022/09/29 07:34:14;;;;;;;8.80;7.90;;;10.00;99.90;;;;;;5025677;28;20202;-70
2022/09/29 07:36:41;;;;;;;8.13;7.33;;;10.00;99.90;;;;;;5020556;28;20655;-72
2022/09/29 07:39:09;;;;;;;8.57;7.67;;;10.00;99.90;;;;;;5023210;28;20673;-71
2022/09/29 07:41:36;;;;;;;10.10;8.23;;;10.00;99.90;;;;;;5022008;28;20687;-71
2022/09/29 07:44:03;;;;;;;11.50;7.67;;;10.00;99.90;;;;;;5027665;28;20690;-71
2022/09/29 07:46:31;;;;;;;10.27;8.10;;;10.10;99.90;;;;;;5029185;28;20234;-69
2022/09/29 07:48:58;;;;;;;8.13;7.33;;;10.00;99.90;;;;;;5031852;28;20214;-71
2022/09/29 07:51:25;;;;;;;8.57;7.33;;;10.10;99.90;;;;;;5031428;28;20215;-70
2022/09/29 07:53:51;;;;;;;8.60;7.07;;;10.00;99.90;;;;;;5031017;28;20211;-71
2022/09/29 07:56:21;;;;;;;8.20;7.30;;;10.10;99.90;;;;;;5028796;28;20229;-71
2022/09/29 07:58:49;;;;;;;11.53;7.60;;;10.10;99.90;;;;;;5026732;28;20211;-71
2022/09/29 08:01:18;;;;;;;8.80;7.13;;;10.30;99.90;;;;;;5034012;28;20242;-72
2022/09/29 08:03:49;;;;;;;8.20;7.07;;;10.30;99.90;;;;;;5025124;28;20202;-70
2022/09/29 08:06:16;;;;;;;7.80;6.97;;;10.40;99.90;;;;;;5026127;28;20210;-73
2022/09/29 08:08:43;;;;;;;10.07;7.10;;;10.50;99.90;;;;;;5026666;28;20759;-72
2022/09/29 08:11:12;;;;;;;10.80;7.70;;;10.50;99.90;;;;;;5032533;28;20480;-72
2022/09/29 08:13:40;;;;;;;10.50;7.70;;;10.60;99.90;;;;;;5031288;28;20237;-74
2022/09/29 08:16:10;;;;;;;11.00;8.00;;;10.70;99.90;;;;;;5032545;28;20835;-71
2022/09/29 08:18:37;;;;;;;9.17;7.87;;;10.90;99.90;;;;;;5032232;28;20230;-71
2022/09/29 08:21:05;;;;;;;7.77;6.97;;;11.00;99.90;;;;;;5031752;28;20210;-71
2022/09/29 08:23:35;;;;;;;7.93;7.13;;;11.10;99.90;;;;;;5035167;28;20610;-76
2022/09/29 08:26:03;;;;;;;8.53;7.63;;;11.10;99.90;;;;;;5035799;28;20226;-76
2022/09/29 08:28:30;;;;;;;7.47;6.73;;;11.20;99.90;;;;;;5026385;28;20198;-77
2022/09/29 08:31:01;;;;;;;8.83;7.07;;;11.30;99.90;;;;;;5029654;28;20226;-79
2022/09/29 08:33:29;;;;;;;8.40;7.57;;;11.50;99.90;;;;;;5034631;28;20199;-73
2022/09/29 08:35:57;;;;;;;8.70;7.23;;;11.70;99.90;;;;;;5028572;28;20269;-77
2022/09/29 08:38:24;;;;;;;8.20;6.77;;;12.00;99.90;;;;;;5026978;28;20206;-75
2022/09/29 08:40:51;;;;;;;6.67;6.00;;;12.30;99.90;;;;;;5028575;28;20215;-73
2022/09/29 08:43:25;;;;;;;8.10;7.27;;;12.60;99.90;;;;;;5032675;28;20291;-73
2022/09/29 08:45:59;;;;;;;8.17;6.47;;;12.80;99.90;;;;;;5019373;28;20672;-73
2022/09/29 08:48:31;;;;;;;6.40;5.80;;;12.90;99.90;;;;;;5023473;28;20207;-76
2022/09/29 08:51:02;;;;;;;6.37;5.77;;;13.10;99.90;;;;;;5024615;28;20203;-70
2022/09/29 08:53:32;;;;;;;6.90;6.20;;;13.40;99.90;;;;;;5032214;28;20209;-70
2022/09/29 08:56:03;;;;;;;6.43;5.83;;;13.90;99.90;;;;;;5030496;28;20283;-70
2022/09/29 08:58:30;;;;;;;6.83;6.20;;;14.50;99.90;;;;;;5028518;28;20209;-71
2022/09/29 09:01:09;;;;;;;6.43;5.80;;;15.00;99.90;;;;;;5027279;28;20211;-71
2022/09/29 09:03:59;;;;;;;6.37;5.80;;;15.50;99.90;;;;;;5026719;28;20261;-70
2022/09/29 09:06:36;;;;;;;5.80;5.30;;;15.50;99.90;;;;;;5023522;28;20215;-68
2022/09/29 09:09:15;;;;;;;5.93;5.33;;;15.20;99.90;;;;;;5027331;28;20209;-70
2022/09/29 09:12:17;;;;;;;5.23;4.80;;;14.80;99.90;;;;;;5025177;28;20206;-71
2022/09/29 09:15:00;;;;;;;6.70;5.20;;;14.50;99.90;;;;;;5025444;28;20203;-69
2022/09/29 09:17:48;;;;;;;5.60;5.00;;;14.20;99.90;;;;;;5031847;28;20577;-70
2022/09/29 09:20:27;;;;;;;7.23;5.23;;;14.00;99.90;;;;;;5021675;28;20210;-70
2022/09/29 09:22:57;;;;;;;5.27;4.77;;;13.80;99.90;;;;;;5026206;28;20245;-77
2022/09/29 09:25:32;;;;;;;6.03;5.43;;;13.50;99.90;;;;;;5018030;28;20222;-76
2022/09/29 09:28:12;;;;;;;5.67;5.17;;;13.60;99.90;;;;;;5025837;28;20688;-77
2022/09/29 09:30:44;;;;;;;5.60;5.10;;;13.70;99.90;;;;;;5021586;28;20233;-75
2022/09/29 09:33:21;;;;;;;5.07;4.63;;;13.90;99.90;;;;;;5024316;28;20213;-77
2022/09/29 09:35:54;;;;;;;5.00;4.60;;;13.90;99.90;;;;;;5029073;28;20194;-78
2022/09/29 09:38:26;;;;;;;5.30;4.80;;;13.80;99.90;;;;;;5024826;28;20278;-72
2022/09/29 09:40:58;;;;;;;5.47;4.93;;;13.80;99.90;;;;;;5020351;28;20336;-72
2022/09/29 09:43:32;;;;;;;6.90;5.57;;;13.70;99.90;;;;;;5034774;28;20212;-71
2022/09/29 09:46:04;;;;;;;5.87;5.37;;;13.60;99.90;;;;;;5023420;28;20674;-72
2022/09/29 09:48:36;;;;;;;6.03;5.53;;;13.50;99.90;;;;;;5028967;28;20198;-68
2022/09/29 09:51:30;;;;;;;7.73;5.47;;;13.40;99.90;;;;;;5022837;28;20199;-69
2022/09/29 09:54:03;;;;;;;6.07;5.47;;;13.30;99.90;;;;;;5023546;28;20584;-69
2022/09/29 09:56:43;;;;;;;5.87;5.37;;;13.20;99.90;;;;;;5028660;28;20210;-71
2022/09/29 09:59:22;;;;;;;6.23;5.60;;;13.10;99.90;;;;;;5025519;28;20208;-68
2022/09/29 10:01:49;;;;;;;6.77;6.10;;;12.90;99.90;;;;;;5022599;28;20210;-68
2022/09/29 10:04:17;;;;;;;8.00;6.17;;;12.90;99.90;;;;;;5020374;28;20208;-72
2022/09/29 10:06:44;;;;;;;6.87;6.00;;;12.80;99.90;;;;;;5028692;28;20218;-71
2022/09/29 10:09:14;;;;;;;6.87;6.13;;;12.70;99.90;;;;;;5033447;28;20213;-73
2022/09/29 10:11:43;;;;;;;8.03;7.10;;;12.60;99.90;;;;;;5027933;28;20199;-73
2022/09/29 10:14:14;;;;;;;6.53;5.83;;;12.40;99.90;;;;;;5027264;28;20211;-73
2022/09/29 10:16:46;;;;;;;7.70;5.83;;;12.40;99.90;;;;;;5029144;28;20667;-71
2022/09/29 10:19:12;;;;;;;5.97;5.40;;;12.40;99.90;;;;;;5027861;28;20207;-71
2022/09/29 10:21:42;;;;;;;7.13;6.43;;;12.30;99.90;;;;;;5022297;28;20210;-70
2022/09/29 10:24:23;;;;;;;6.60;5.90;;;12.30;99.90;;;;;;5026801;28;20246;-73
2022/09/29 10:26:52;;;;;;;6.47;5.67;;;12.30;99.90;;;;;;5026142;28;20225;-71
2022/09/29 10:29:25;;;;;;;6.50;5.90;;;12.30;99.90;;;;;;5031453;28;20213;-70
2022/09/29 10:32:00;;;;;;;11.23;5.83;;;12.30;99.90;;;;;;5033064;28;20210;-72
2022/09/29 10:34:29;;;;;;;6.60;5.93;;;12.20;99.90;;;;;;5031620;28;20264;-69
2022/09/29 10:37:00;;;;;;;6.40;5.80;;;12.30;99.90;;;;;;5026090;28;20566;-71
2022/09/29 10:39:32;;;;;;;6.77;6.17;;;12.30;99.90;;;;;;5030862;28;20206;-71
2022/09/29 10:41:59;;;;;;;7.57;6.87;;;12.30;99.90;;;;;;5030711;28;20206;-71
2022/09/29 10:44:31;;;;;;;8.60;6.43;;;12.20;99.90;;;;;;5032232;28;20218;-72
2022/09/29 10:46:58;;;;;;;10.83;7.20;;;12.30;99.90;;;;;;5030707;28;20294;-72
2022/09/29 10:49:28;;;;;;;7.73;6.87;;;12.20;99.90;;;;;;5026156;28;20861;-69
2022/09/29 10:52:02;;;;;;;8.40;7.60;;;12.20;99.90;;;;;;5032309;28;20681;-70
2022/09/29 10:54:32;;;;;;;7.17;6.43;;;12.10;99.90;;;;;;5030433;28;20649;-75
2022/09/29 10:56:59;;;;;;;10.50;7.60;;;12.10;99.90;;;;;;5031762;28;20206;-73
2022/09/29 10:59:27;;;;;;;7.90;7.10;;;12.00;99.90;;;;;;5016277;28;20668;-74
2022/09/29 11:01:57;;;;;;;10.40;7.50;;;12.00;99.90;;;;;;5025651;28;20215;-73
2022/09/29 11:04:27;;;;;;;15.73;9.10;;;11.90;99.90;;;;;;5025701;28;20205;-70
2022/09/29 11:06:55;;;;;;;9.80;8.90;;;12.00;99.90;;;;;;5022563;28;20211;-71
2022/09/29 11:09:38;;;;;;;11.13;7.70;;;12.10;99.90;;;;;;5022213;28;20207;-72
2022/09/29 11:12:05;;;;;;;9.73;7.70;;;12.20;99.90;;;;;;5016129;28;20218;-72
2022/09/29 11:14:41;;;;;;;9.47;7.90;;;12.30;99.90;;;;;;5022384;28;20215;-73
2022/09/29 11:17:22;;;;;;;10.45;9.45;;;12.40;99.90;;;;;;5022734;28;20441;-72
2022/09/29 11:19:49;;;;;;;9.10;8.17;;;12.40;99.90;;;;;;5026389;28;20234;-74
2022/09/29 11:22:57;;;;;;;11.63;8.90;;;12.50;99.90;;;;;;5029350;28;20249;-74
2022/09/29 11:25:51;;;;;;;9.00;8.10;;;12.60;99.90;;;;;;4979322;28;20214;-71
2022/09/29 11:28:39;;;;;;;11.63;10.52;;;12.70;99.90;;;;;;5021021;28;20457;-74
2022/09/29 11:31:20;;;;;;;9.17;8.27;;;12.90;99.90;;;;;;5031393;28;20202;-72
2022/09/29 11:34:00;;;;;;;11.23;10.13;;;13.00;99.90;;;;;;5023016;28;20954;-73
2022/09/29 11:36:35;;;;;;;11.10;9.70;;;13.10;99.90;;;;;;5026788;28;20221;-72
2022/09/29 11:39:15;;;;;;;10.13;9.03;;;13.20;99.90;;;;;;5029822;28;20205;-71
2022/09/29 11:41:52;;;;;;;9.53;8.50;;;13.20;99.90;;;;;;5029414;28;20632;-70
2022/09/29 11:44:31;;;;;;;7.97;7.23;;;13.30;99.90;;;;;;5026845;28;20210;-71
2022/09/29 11:47:07;;;;;;;10.68;9.57;;;13.30;99.90;;;;;;5029828;28;20461;-74
2022/09/29 11:50:02;;;;;;;11.53;9.60;;;13.40;99.90;;;;;;5037291;28;20206;-76
2022/09/29 11:52:47;;;;;;;15.10;12.07;;;13.40;99.90;;;;;;5033434;28;20206;-75
2022/09/29 11:55:32;;;;;;;9.03;8.13;;;13.50;99.90;;;;;;5033133;28;20693;-76
2022/09/29 11:58:26;;;;;;;9.00;8.20;;;13.60;99.90;;;;;;5032806;28;20207;-80
2022/09/29 12:01:10;;;;;;;11.27;8.63;;;13.60;99.90;;;;;;5049319;28;20218;-81
2022/09/29 12:03:46;;;;;;;8.73;7.93;;;13.60;99.90;;;;;;5024462;28;20298;-82
2022/09/29 12:06:35;;;;;;;8.63;7.73;;;13.70;99.90;;;;;;5040913;28;20222;-80
2022/09/29 12:09:19;;;;;;;8.90;7.77;;;13.80;99.90;;;;;;5034457;28;20946;-81
2022/09/29 12:11:55;;;;;;;9.27;7.53;;;13.90;99.90;;;;;;5033131;28;20194;-81
2022/09/29 12:14:32;;;;;;;9.53;7.17;;;13.90;99.90;;;;;;5027527;28;20197;-79
2022/09/29 12:17:06;;;;;;;8.60;7.77;;;14.10;99.90;;;;;;5029302;28;20207;-81
2022/09/29 12:19:38;;;;;;;8.27;7.53;;;14.20;99.90;;;;;;5037267;28;20198;-80
2022/09/29 12:22:10;;;;;;;9.50;8.10;;;14.20;99.90;;;;;;5036375;28;20280;-77
2022/09/29 12:24:40;;;;;;;8.30;7.50;;;14.00;99.90;;;;;;5026407;28;20299;-79
2022/09/29 12:27:13;;;;;;;8.07;7.37;;;13.90;99.90;;;;;;5026768;28;20481;-78
2022/09/29 12:29:47;;;;;;;9.37;7.33;;;13.90;99.90;;;;;;5040254;28;20545;-79
2022/09/29 12:32:19;;;;;;;6.87;6.17;;;15.00;99.90;;;;;;5028085;28;20215;-79
2022/09/29 12:34:51;;;;;;;9.27;7.30;;;16.30;99.90;;;;;;5036156;28;20199;-79
2022/09/29 12:37:23;;;;;;;7.87;6.40;;;17.80;99.90;;;;;;5032632;28;20775;-78
2022/09/29 12:39:59;;;;;;;6.22;5.70;;;19.40;99.90;;;;;;5035512;28;20640;-79
2022/09/29 12:42:44;;;;;;;6.35;5.72;;;21.10;99.90;;;;;;5033910;28;20212;-78
2022/09/29 12:45:26;;;;;;;6.53;5.93;;;23.00;94.90;;;;;;5035447;28;20206;-78
2022/09/29 12:48:02;;;;;;;7.07;6.38;;;23.10;81.20;;;;;;5033886;28;20222;-78
2022/09/29 12:50:32;;;;;;;7.10;6.35;;;22.20;77.30;;;;;;5033980;28;20202;-80
2022/09/29 12:53:09;;;;;;;7.88;6.43;;;21.00;78.00;;;;;;5040041;28;20208;-80
2022/09/29 12:55:45;;;;;;;7.22;6.63;;;19.90;80.00;;;;;;5030509;28;20206;-80
2022/09/29 12:58:20;;;;;;;7.55;6.85;;;19.00;83.10;;;;;;5039644;28;20293;-80
2022/09/29 13:00:53;;;;;;;7.63;6.93;;;18.30;85.50;;;;;;5033009;28;20236;-80
2022/09/29 13:03:42;;;;;;;8.20;7.35;;;17.60;87.50;;;;;;5039493;28;20225;-78
2022/09/29 13:06:33;;;;;;;8.52;7.72;;;16.90;90.20;;;;;;5031240;28;20277;-79
2022/09/29 13:09:26;;;;;;;7.90;7.20;;;16.40;91.50;;;;;;5035809;28;20213;-79
2022/09/29 13:12:04;;;;;;;7.88;7.07;;;16.10;92.70;;;;;;5037826;28;20198;-79